Kobaia Nui — FGA8587 — position and weather

sailwx.info

Track history (hours):
 
Tides and Currents Weather Stations Pressure Air Temp Water Temp Dewpoint Dewpoint Depression Visibility Wind Speed Wind Dir Waves Ship Positions

Kobaia Nui

Last reported at 2018-Mar-31 13:44 UTC. Time now 2018-May-22 01:52 UTC.
Position N 47°21' W 003°09'.
Warning: this ship's position is 51 days out of date.

Length 15 m.

Type: Pleasure craft. MMSI: 227540860.

Date/timePositionNaut miles runAvg speedWind from/ knotsBaromVisibWave heightAir tempDewpointWater temp
2018-Mar-31 13:44N 47°21' W 003°09'1 2.7
2018-Mar-31 13:30N 47°21' W 003°08'1 2.3
2018-Mar-31 12:59N 47°22' W 003°07'6 3.5
2018-Mar-31 11:11N 47°22' W 002°58'1 2.2
2018-Mar-31 10:50N 47°22' W 002°57'2 5.3
2018-Mar-31 10:22N 47°24' W 002°54'2 5.3
2018-Mar-31 09:56N 47°21' W 002°53'2 5.3
2018-Mar-31 09:28N 47°23' W 002°50'3 6.7
2018-Mar-31 09:00N 47°24' W 002°46'3 6.3
2018-Mar-31 08:30N 47°26' W 002°42'3 6.9
2018-Mar-31 08:00N 47°28' W 002°38'3 6.6
2018-Mar-31 07:30N 47°29' W 002°34'4 7.2
2018-Mar-31 06:59N 47°30' W 002°28'4 5.5
2018-Mar-31 06:19N 47°30' W 002°23'  
Track history (hours):
 
Tides and Currents Weather Stations Pressure Air Temp Water Temp Dewpoint Dewpoint Depression Visibility Wind Speed Wind Dir Waves Ship Positions

Kobaia Nui

Last reported at 2018-Mar-31 13:44 UTC. Time now 2018-May-22 01:52 UTC.
Position N 47°21' W 003°09'.
Warning: this ship's position is 51 days out of date.

Length 15 m.

Type: Pleasure craft. MMSI: 227540860.

Date/timePositionNaut miles runAvg speedWind from/ knotsBaromVisibWave heightAir tempDewpointWater temp
2018-Mar-31 13:44N 47°21' W 003°09'1 2.7
2018-Mar-31 13:30N 47°21' W 003°08'1 2.3
2018-Mar-31 12:59N 47°22' W 003°07'6 3.5
2018-Mar-31 11:11N 47°22' W 002°58'1 2.2
2018-Mar-31 10:50N 47°22' W 002°57'2 5.3
2018-Mar-31 10:22N 47°24' W 002°54'2 5.3
2018-Mar-31 09:56N 47°21' W 002°53'2 5.3
2018-Mar-31 09:28N 47°23' W 002°50'3 6.7
2018-Mar-31 09:00N 47°24' W 002°46'3 6.3
2018-Mar-31 08:30N 47°26' W 002°42'3 6.9
2018-Mar-31 08:00N 47°28' W 002°38'3 6.6
2018-Mar-31 07:30N 47°29' W 002°34'4 7.2
2018-Mar-31 06:59N 47°30' W 002°28'4 5.5
2018-Mar-31 06:19N 47°30' W 002°23'  

Dump ship's entire track history